Pittsboro, NC

9:20 AM EDT on March 27, 2015 (GMT -0400)
Williams | | Change Station
CLOSE
Current Station
Airport
Location: Chapel Hill,
Elevation: 512 ft
Nearby Weather Stations

Elev 512 ft 35.93 °N, 79.06 °W | Updated 24 minutes ago

Rain
Rain
48 °F
Feels Like 48 °F
N
6
Wind Variable Wind from Variable

Today
High -- | Low -- °F
--% Chance of Precip.
Yesterday
High -- | Low -- °F
Precip. -- in
7:10 AM 7:34 PM
First Quarter, 52% visible
Pressure 29.72 in
Visibility 10.0 miles
Clouds Mostly Cloudy 1100 ft
Overcast 1400 ft
Dew Point 45 °F
Humidity 89%
Rainfall 0.01 in
Snow Depth Not available.
UV 0 out of 12
Pollen 2.70 out of 12
Air Quality Not available.
Flu Activity Not available.
METAR KIGX 271256Z AUTO VRB05KT 10SM -RA BKN011 OVC014 09/07 A2973 RMK AO2 RAB38 CIG 007V012 SLP064 P0001 T00890072 TSNO

More Conditions Fewer Conditions

Pressure 29.72 in
Visibility 10.0 miles
Clouds Mostly Cloudy 1100 ft
Overcast 1400 ft
Dew Point 45 °F
Humidity 89%
Rainfall 0.01 in
Snow Depth Not available.
UV 0 out of 12
Pollen 2.70 out of 12
Air Quality Not available.
Flu Activity Not available.
METAR KIGX 271256Z AUTO VRB05KT 10SM -RA BKN011 OVC014 09/07 A2973 RMK AO2 RAB38 CIG 007V012 SLP064 P0001 T00890072 TSNO

More Conditions Fewer Conditions

10-Day Weather Forecast

Almanac

Astronomy

Mar. 27, 2015 Rise Set
Actual Time
Civil Twilight
Nautical Twilight
Astronomical Twilight
Moon
Length of Visible Light
Length of Day
Tomorrow will be .
, % of the Moon is Illuminated

Today's Extremes

State Highs State Lows

Community

WunderPhotos

Upload Photos

1,808,729 photos uploaded!

WunderBlogs® & News

Nearby

Air Quality

  Air Quality AQ Index Pollutant
Not available.

Snow Depth

Station Depth Elevation

Earthquake Activity

City Distance Mag. Time & Date
Minimum magnitude displayed is 2.5.

Coastal Water Temperatures

Place Temperature

Stations

Nearby Weather Stations

Station Location Temp. Windchill Dew Point Humidity Wind Precip. Elev Updated Type